Nathan G — WDJ6251 — position and weather

sailwx.info

Track history (hours):
 
Tides and Currents Weather Stations Pressure Air Temp Water Temp Dewpoint Dewpoint Depression Visibility Wind Speed Wind Dir Waves Ship Positions

Nathan G

Owner: New York State Marine Highway Transportation LLC, Troy, NY. More information available from US FCC via Universal Licensing System and Coast Guard Vessel Documentation Center.

Last reported at 2018-Aug-20 16:04 UTC. Time now 2018-Aug-20 16:20 UTC.
Position N 40°41' W 074°01'.

Length 18 m; draft 3 m.

MMSI: 367795910.

Date/timePositionNaut miles runAvg speedWind from/ knotsBaromVisibWave heightAir tempDewpointWater temp
2018-Aug-20 16:04N 40°41' W 074°01'0 7.7
2018-Aug-20 16:00N 40°41' W 074°00'4 7.6
2018-Aug-20 15:29N 40°45' W 073°58'1 0.1
2018-Aug-20 04:01N 40°46' W 073°57'0 3.3
2018-Aug-20 04:00N 40°45' W 073°57'2 4.2
2018-Aug-20 03:30N 40°43' W 073°58'2 3.7
2018-Aug-20 03:00N 40°42' W 074°00'1 2.6
2018-Aug-20 02:31N 40°43' W 074°02'2 4.4
2018-Aug-20 02:00N 40°45' W 074°01'0 0.7
2018-Aug-20 01:25N 40°45' W 074°01'3 6.4
2018-Aug-20 01:00N 40°43' W 074°02'3 6.4
2018-Aug-20 00:30N 40°39' W 074°02'0 0.1
2018-Aug-20 00:00N 40°39' W 074°02'0 0.0
2018-Aug-19 23:30N 40°39' W 074°02'0 0.0
2018-Aug-19 23:00N 40°39' W 074°02'0 0.0
2018-Aug-19 22:30N 40°39' W 074°02'0 0.0
2018-Aug-19 22:00N 40°39' W 074°02'0 0.1
2018-Aug-19 21:30N 40°39' W 074°02'0 0.1
2018-Aug-19 21:00N 40°39' W 074°02'0 0.0
2018-Aug-19 20:30N 40°39' W 074°02'0 0.0
2018-Aug-19 20:00N 40°39' W 074°02'0 0.0
2018-Aug-19 19:30N 40°39' W 074°02'0 0.0
2018-Aug-19 18:58N 40°39' W 074°02'0 0.1
2018-Aug-19 18:30N 40°39' W 074°02'0 0.1
2018-Aug-19 18:00N 40°39' W 074°02'0 0.1
2018-Aug-19 17:28N 40°39' W 074°02'0 0.0
2018-Aug-19 16:58N 40°39' W 074°02'0 0.0
2018-Aug-19 16:28N 40°39' W 074°02'0 0.0
2018-Aug-19 15:58N 40°39' W 074°02'4 0.1
2018-Aug-18 12:35N 40°36' W 074°02'1 8.1
2018-Aug-18 12:27N 40°37' W 074°03'3 6.0
2018-Aug-18 12:00N 40°39' W 074°02'0 0.0
2018-Aug-18 11:29N 40°39' W 074°02'0 0.0
2018-Aug-18 11:00N 40°39' W 074°02'0 0.0
2018-Aug-18 10:30N 40°39' W 074°02'0 0.1
2018-Aug-18 10:00N 40°39' W 074°02'0 0.0
2018-Aug-18 09:30N 40°39' W 074°02'0 0.0
2018-Aug-18 09:00N 40°39' W 074°02'0 0.0
2018-Aug-18 08:30N 40°39' W 074°02'0 0.3
2018-Aug-18 08:00N 40°39' W 074°02'0 0.1
2018-Aug-18 07:30N 40°39' W 074°02'2 3.2
2018-Aug-18 07:00N 40°40' W 074°04'0 0.0
2018-Aug-18 06:29N 40°40' W 074°04'0 0.0
2018-Aug-18 06:00N 40°40' W 074°04'0 0.0
2018-Aug-18 05:23N 40°40' W 074°04'0 0.0
2018-Aug-18 04:56N 40°40' W 074°04'0 0.7
2018-Aug-18 04:30N 40°40' W 074°04'1 2.9
2018-Aug-18 04:00N 40°39' W 074°02'0 0.1
2018-Aug-18 03:30N 40°39' W 074°02'0 0.1
2018-Aug-18 03:00N 40°39' W 074°02'0 0.1
2018-Aug-18 02:30N 40°39' W 074°02'0 0.0
2018-Aug-18 02:00N 40°39' W 074°02'0 0.2
2018-Aug-18 01:30N 40°39' W 074°02'0 0.3
2018-Aug-18 00:59N 40°39' W 074°02'0 0.4
2018-Aug-18 00:30N 40°39' W 074°02'0 0.0
2018-Aug-18 00:00N 40°39' W 074°02'0 0.0
2018-Aug-17 23:30N 40°39' W 074°02'0 0.6
2018-Aug-17 23:00N 40°40' W 074°02'0 0.1
2018-Aug-17 22:30N 40°40' W 074°02'2 0.3
2018-Aug-17 14:00N 40°37' W 074°03'2 4.0
2018-Aug-17 13:30N 40°39' W 074°02'0 0.3
2018-Aug-17 13:00N 40°39' W 074°02'0 0.0
2018-Aug-17 12:30N 40°39' W 074°02'4 1.3
2018-Aug-17 09:47N 40°39' W 074°07'2 7.0
2018-Aug-17 09:30N 40°39' W 074°04'5 9.4
2018-Aug-17 09:00N 40°44' W 074°01'3 0.1
2018-Aug-16 00:54N 40°46' W 074°00'1 3.7
2018-Aug-16 00:30N 40°45' W 074°01'2 3.2
2018-Aug-16 00:00N 40°43' W 074°02'1 2.8
2018-Aug-15 23:30N 40°42' W 074°02'1 2.5
2018-Aug-15 23:00N 40°41' W 074°02'2 3.2
2018-Aug-15 22:27N 40°39' W 074°02'2 0.2
2018-Aug-15 12:24N 40°37' W 074°03'2 4.7
2018-Aug-15 12:00N 40°39' W 074°02'0 0.6
2018-Aug-15 11:30N 40°39' W 074°02'0 0.1
2018-Aug-15 10:58N 40°39' W 074°02'0 0.1
2018-Aug-15 10:30N 40°39' W 074°02'0 0.0
2018-Aug-15 10:00N 40°39' W 074°02'0 0.0
2018-Aug-15 09:30N 40°39' W 074°02'0 0.0
2018-Aug-15 09:00N 40°39' W 074°02'0 0.0
2018-Aug-15 08:30N 40°39' W 074°02'0 0.0
2018-Aug-15 08:00N 40°39' W 074°02'2 4.8
2018-Aug-15 07:30N 40°39' W 074°05'4 7.9
2018-Aug-15 06:59N 40°39' W 074°10'1 0.1
2018-Aug-14 22:53N 40°39' W 074°09'2 5.5
2018-Aug-14 22:29N 40°39' W 074°06'2 4.2
2018-Aug-14 22:00N 40°39' W 074°03'1 2.1
2018-Aug-14 21:30N 40°39' W 074°02'2 4.3
2018-Aug-14 21:00N 40°41' W 074°01'5 0.5
2018-Aug-14 11:10N 40°46' W 073°57'1 5.8
2018-Aug-14 10:59N 40°45' W 073°58'2 5.0
2018-Aug-14 10:30N 40°43' W 073°59'2 4.6
2018-Aug-14 10:00N 40°41' W 074°01'2 3.9
2018-Aug-14 09:30N 40°39' W 074°02'0 0.0
2018-Aug-14 09:00N 40°39' W 074°02'0 0.0
2018-Aug-14 08:30N 40°39' W 074°02'0 0.0
2018-Aug-14 08:00N 40°39' W 074°02'0 0.0
2018-Aug-14 07:30N 40°39' W 074°02'1 1.3
2018-Aug-14 07:00N 40°39' W 074°02'2 3.8
2018-Aug-14 06:29N 40°37' W 074°03'2 3.7
2018-Aug-14 05:51N 40°34' W 074°02'4 3.4
2018-Aug-14 04:31N 40°34' W 073°56'1 4.6
2018-Aug-14 04:16N 40°34' W 073°54'6 0.3
2018-Aug-13 09:27N 40°36' W 074°02'2 5.2
2018-Aug-13 09:00N 40°38' W 074°02'1 1.7
2018-Aug-13 08:30N 40°39' W 074°02'0 0.1
2018-Aug-13 08:00N 40°39' W 074°02'0 0.0
2018-Aug-13 07:30N 40°39' W 074°02'0 0.0
2018-Aug-13 07:00N 40°39' W 074°02'0 0.0
2018-Aug-13 06:30N 40°39' W 074°02'1 1.7
2018-Aug-13 06:00N 40°39' W 074°03'1 1.7
2018-Aug-13 05:30N 40°39' W 074°02'0 0.0
2018-Aug-13 04:59N 40°39' W 074°02'0 0.0
2018-Aug-13 04:30N 40°39' W 074°02'0 0.0
2018-Aug-13 04:00N 40°39' W 074°02'0 0.1
2018-Aug-13 03:30N 40°39' W 074°02'0 0.1
2018-Aug-13 03:00N 40°39' W 074°02'0 0.0
2018-Aug-13 02:30N 40°39' W 074°02'0 0.1
2018-Aug-13 02:00N 40°39' W 074°02'0 0.1
2018-Aug-13 01:30N 40°39' W 074°02'0 0.0
2018-Aug-13 01:00N 40°39' W 074°02'0 0.0
2018-Aug-13 00:30N 40°39' W 074°02'0 0.0
2018-Aug-13 00:00N 40°39' W 074°02'0 0.0
2018-Aug-12 23:30N 40°39' W 074°02'0 0.0
2018-Aug-12 23:00N 40°39' W 074°02'0 0.2
2018-Aug-12 22:30N 40°39' W 074°02'0 0.3
2018-Aug-12 22:00N 40°40' W 074°02'2 4.7
2018-Aug-12 21:30N 40°42' W 074°00'5 0.4
2018-Aug-12 08:50N 40°45' W 073°57'1 3.9
2018-Aug-12 08:29N 40°44' W 073°58'2 3.4
2018-Aug-12 08:00N 40°43' W 073°59'1 2.8
2018-Aug-12 07:30N 40°42' W 074°00'2 3.8
2018-Aug-12 07:00N 40°40' W 074°02'1 2.2
2018-Aug-12 06:29N 40°39' W 074°02'0 0.0
2018-Aug-12 06:00N 40°39' W 074°02'1 2.9
2018-Aug-12 05:30N 40°38' W 074°03'2 0.0
2018-Aug-10 20:45N 40°36' W 074°02'1 5.3
2018-Aug-10 20:29N 40°38' W 074°03'2 3.7
2018-Aug-10 20:00N 40°39' W 074°02'0 0.1
2018-Aug-10 19:30N 40°39' W 074°02'0 0.1
2018-Aug-10 19:00N 40°39' W 074°02'0 0.0
2018-Aug-10 18:30N 40°39' W 074°02'0 0.0
2018-Aug-10 18:00N 40°39' W 074°02'0 0.0
2018-Aug-10 17:30N 40°39' W 074°02'0 0.0
2018-Aug-10 17:00N 40°39' W 074°02'0 0.0
2018-Aug-10 16:28N 40°39' W 074°02'0 0.0
2018-Aug-10 16:00N 40°39' W 074°02'  
Track history (hours):
 
Tides and Currents Weather Stations Pressure Air Temp Water Temp Dewpoint Dewpoint Depression Visibility Wind Speed Wind Dir Waves Ship Positions

Nathan G

Owner: New York State Marine Highway Transportation LLC, Troy, NY. More information available from US FCC via Universal Licensing System and Coast Guard Vessel Documentation Center.

Last reported at 2018-Aug-20 16:04 UTC. Time now 2018-Aug-20 16:20 UTC.
Position N 40°41' W 074°01'.

Length 18 m; draft 3 m.

MMSI: 367795910.

Date/timePositionNaut miles runAvg speedWind from/ knotsBaromVisibWave heightAir tempDewpointWater temp
2018-Aug-20 16:04N 40°41' W 074°01'0 7.7
2018-Aug-20 16:00N 40°41' W 074°00'4 7.6
2018-Aug-20 15:29N 40°45' W 073°58'1 0.1
2018-Aug-20 04:01N 40°46' W 073°57'0 3.3
2018-Aug-20 04:00N 40°45' W 073°57'2 4.2
2018-Aug-20 03:30N 40°43' W 073°58'2 3.7
2018-Aug-20 03:00N 40°42' W 074°00'1 2.6
2018-Aug-20 02:31N 40°43' W 074°02'2 4.4
2018-Aug-20 02:00N 40°45' W 074°01'0 0.7
2018-Aug-20 01:25N 40°45' W 074°01'3 6.4
2018-Aug-20 01:00N 40°43' W 074°02'3 6.4
2018-Aug-20 00:30N 40°39' W 074°02'0 0.1
2018-Aug-20 00:00N 40°39' W 074°02'0 0.0
2018-Aug-19 23:30N 40°39' W 074°02'0 0.0
2018-Aug-19 23:00N 40°39' W 074°02'0 0.0
2018-Aug-19 22:30N 40°39' W 074°02'0 0.0
2018-Aug-19 22:00N 40°39' W 074°02'0 0.1
2018-Aug-19 21:30N 40°39' W 074°02'0 0.1
2018-Aug-19 21:00N 40°39' W 074°02'0 0.0
2018-Aug-19 20:30N 40°39' W 074°02'0 0.0
2018-Aug-19 20:00N 40°39' W 074°02'0 0.0
2018-Aug-19 19:30N 40°39' W 074°02'0 0.0
2018-Aug-19 18:58N 40°39' W 074°02'0 0.1
2018-Aug-19 18:30N 40°39' W 074°02'0 0.1
2018-Aug-19 18:00N 40°39' W 074°02'0 0.1
2018-Aug-19 17:28N 40°39' W 074°02'0 0.0
2018-Aug-19 16:58N 40°39' W 074°02'0 0.0
2018-Aug-19 16:28N 40°39' W 074°02'0 0.0
2018-Aug-19 15:58N 40°39' W 074°02'4 0.1
2018-Aug-18 12:35N 40°36' W 074°02'1 8.1
2018-Aug-18 12:27N 40°37' W 074°03'3 6.0
2018-Aug-18 12:00N 40°39' W 074°02'0 0.0
2018-Aug-18 11:29N 40°39' W 074°02'0 0.0
2018-Aug-18 11:00N 40°39' W 074°02'0 0.0
2018-Aug-18 10:30N 40°39' W 074°02'0 0.1
2018-Aug-18 10:00N 40°39' W 074°02'0 0.0
2018-Aug-18 09:30N 40°39' W 074°02'0 0.0
2018-Aug-18 09:00N 40°39' W 074°02'0 0.0
2018-Aug-18 08:30N 40°39' W 074°02'0 0.3
2018-Aug-18 08:00N 40°39' W 074°02'0 0.1
2018-Aug-18 07:30N 40°39' W 074°02'2 3.2
2018-Aug-18 07:00N 40°40' W 074°04'0 0.0
2018-Aug-18 06:29N 40°40' W 074°04'0 0.0
2018-Aug-18 06:00N 40°40' W 074°04'0 0.0
2018-Aug-18 05:23N 40°40' W 074°04'0 0.0
2018-Aug-18 04:56N 40°40' W 074°04'0 0.7
2018-Aug-18 04:30N 40°40' W 074°04'1 2.9
2018-Aug-18 04:00N 40°39' W 074°02'0 0.1
2018-Aug-18 03:30N 40°39' W 074°02'0 0.1
2018-Aug-18 03:00N 40°39' W 074°02'0 0.1
2018-Aug-18 02:30N 40°39' W 074°02'0 0.0
2018-Aug-18 02:00N 40°39' W 074°02'0 0.2
2018-Aug-18 01:30N 40°39' W 074°02'0 0.3
2018-Aug-18 00:59N 40°39' W 074°02'0 0.4
2018-Aug-18 00:30N 40°39' W 074°02'0 0.0
2018-Aug-18 00:00N 40°39' W 074°02'0 0.0
2018-Aug-17 23:30N 40°39' W 074°02'0 0.6
2018-Aug-17 23:00N 40°40' W 074°02'0 0.1
2018-Aug-17 22:30N 40°40' W 074°02'2 0.3
2018-Aug-17 14:00N 40°37' W 074°03'2 4.0
2018-Aug-17 13:30N 40°39' W 074°02'0 0.3
2018-Aug-17 13:00N 40°39' W 074°02'0 0.0
2018-Aug-17 12:30N 40°39' W 074°02'4 1.3
2018-Aug-17 09:47N 40°39' W 074°07'2 7.0
2018-Aug-17 09:30N 40°39' W 074°04'5 9.4
2018-Aug-17 09:00N 40°44' W 074°01'3 0.1
2018-Aug-16 00:54N 40°46' W 074°00'1 3.7
2018-Aug-16 00:30N 40°45' W 074°01'2 3.2
2018-Aug-16 00:00N 40°43' W 074°02'1 2.8
2018-Aug-15 23:30N 40°42' W 074°02'1 2.5
2018-Aug-15 23:00N 40°41' W 074°02'2 3.2
2018-Aug-15 22:27N 40°39' W 074°02'2 0.2
2018-Aug-15 12:24N 40°37' W 074°03'2 4.7
2018-Aug-15 12:00N 40°39' W 074°02'0 0.6
2018-Aug-15 11:30N 40°39' W 074°02'0 0.1
2018-Aug-15 10:58N 40°39' W 074°02'0 0.1
2018-Aug-15 10:30N 40°39' W 074°02'0 0.0
2018-Aug-15 10:00N 40°39' W 074°02'0 0.0
2018-Aug-15 09:30N 40°39' W 074°02'0 0.0
2018-Aug-15 09:00N 40°39' W 074°02'0 0.0
2018-Aug-15 08:30N 40°39' W 074°02'0 0.0
2018-Aug-15 08:00N 40°39' W 074°02'2 4.8
2018-Aug-15 07:30N 40°39' W 074°05'4 7.9
2018-Aug-15 06:59N 40°39' W 074°10'1 0.1
2018-Aug-14 22:53N 40°39' W 074°09'2 5.5
2018-Aug-14 22:29N 40°39' W 074°06'2 4.2
2018-Aug-14 22:00N 40°39' W 074°03'1 2.1
2018-Aug-14 21:30N 40°39' W 074°02'2 4.3
2018-Aug-14 21:00N 40°41' W 074°01'5 0.5
2018-Aug-14 11:10N 40°46' W 073°57'1 5.8
2018-Aug-14 10:59N 40°45' W 073°58'2 5.0
2018-Aug-14 10:30N 40°43' W 073°59'2 4.6
2018-Aug-14 10:00N 40°41' W 074°01'2 3.9
2018-Aug-14 09:30N 40°39' W 074°02'0 0.0
2018-Aug-14 09:00N 40°39' W 074°02'0 0.0
2018-Aug-14 08:30N 40°39' W 074°02'0 0.0
2018-Aug-14 08:00N 40°39' W 074°02'0 0.0
2018-Aug-14 07:30N 40°39' W 074°02'1 1.3
2018-Aug-14 07:00N 40°39' W 074°02'2 3.8
2018-Aug-14 06:29N 40°37' W 074°03'2 3.7
2018-Aug-14 05:51N 40°34' W 074°02'4 3.4
2018-Aug-14 04:31N 40°34' W 073°56'1 4.6
2018-Aug-14 04:16N 40°34' W 073°54'6 0.3
2018-Aug-13 09:27N 40°36' W 074°02'2 5.2
2018-Aug-13 09:00N 40°38' W 074°02'1 1.7
2018-Aug-13 08:30N 40°39' W 074°02'0 0.1
2018-Aug-13 08:00N 40°39' W 074°02'0 0.0
2018-Aug-13 07:30N 40°39' W 074°02'0 0.0
2018-Aug-13 07:00N 40°39' W 074°02'0 0.0
2018-Aug-13 06:30N 40°39' W 074°02'1 1.7
2018-Aug-13 06:00N 40°39' W 074°03'1 1.7
2018-Aug-13 05:30N 40°39' W 074°02'0 0.0
2018-Aug-13 04:59N 40°39' W 074°02'0 0.0
2018-Aug-13 04:30N 40°39' W 074°02'0 0.0
2018-Aug-13 04:00N 40°39' W 074°02'0 0.1
2018-Aug-13 03:30N 40°39' W 074°02'0 0.1
2018-Aug-13 03:00N 40°39' W 074°02'0 0.0
2018-Aug-13 02:30N 40°39' W 074°02'0 0.1
2018-Aug-13 02:00N 40°39' W 074°02'0 0.1
2018-Aug-13 01:30N 40°39' W 074°02'0 0.0
2018-Aug-13 01:00N 40°39' W 074°02'0 0.0
2018-Aug-13 00:30N 40°39' W 074°02'0 0.0
2018-Aug-13 00:00N 40°39' W 074°02'0 0.0
2018-Aug-12 23:30N 40°39' W 074°02'0 0.0
2018-Aug-12 23:00N 40°39' W 074°02'0 0.2
2018-Aug-12 22:30N 40°39' W 074°02'0 0.3
2018-Aug-12 22:00N 40°40' W 074°02'2 4.7
2018-Aug-12 21:30N 40°42' W 074°00'5 0.4
2018-Aug-12 08:50N 40°45' W 073°57'1 3.9
2018-Aug-12 08:29N 40°44' W 073°58'2 3.4
2018-Aug-12 08:00N 40°43' W 073°59'1 2.8
2018-Aug-12 07:30N 40°42' W 074°00'2 3.8
2018-Aug-12 07:00N 40°40' W 074°02'1 2.2
2018-Aug-12 06:29N 40°39' W 074°02'0 0.0
2018-Aug-12 06:00N 40°39' W 074°02'1 2.9
2018-Aug-12 05:30N 40°38' W 074°03'2 0.0
2018-Aug-10 20:45N 40°36' W 074°02'1 5.3
2018-Aug-10 20:29N 40°38' W 074°03'2 3.7
2018-Aug-10 20:00N 40°39' W 074°02'0 0.1
2018-Aug-10 19:30N 40°39' W 074°02'0 0.1
2018-Aug-10 19:00N 40°39' W 074°02'0 0.0
2018-Aug-10 18:30N 40°39' W 074°02'0 0.0
2018-Aug-10 18:00N 40°39' W 074°02'0 0.0
2018-Aug-10 17:30N 40°39' W 074°02'0 0.0
2018-Aug-10 17:00N 40°39' W 074°02'0 0.0
2018-Aug-10 16:28N 40°39' W 074°02'0 0.0
2018-Aug-10 16:00N 40°39' W 074°02'  

Dump ship's entire track history